Baltic Betina — 9HDW8 — position and weather

sailwx.info

Track history (hours):
 
Tides and Currents Weather Stations Pressure Air Temp Water Temp Dewpoint Dewpoint Depression Visibility Wind Speed Wind Dir Waves Ship Positions

Baltic Betina

Last reported at 2015-Jan-18 02:05 UTC. Time now 2015-Feb-01 22:46 UTC.
Position N 55°16' E 009°53'.
Warning: this ship's position is 14 days out of date.

Length 90 m; draft 5.1 m.

Type: Ship. MMSI: 215869000.

Date/timePositionNaut miles runAvg speedWind from/ knotsBaromVisibWave heightAir tempDewpointWater temp
2015-Jan-18 02:05N 55°16' E 009°53'4 5.6
2015-Jan-18 01:24N 55°20' E 009°51'2 0.2
2015-Jan-17 12:15N 55°18' E 009°52'6 9.1
2015-Jan-17 11:34N 55°12' E 009°48'9 9.1
2015-Jan-17 10:33N 55°05' E 009°59'10 9.7
2015-Jan-17 09:33N 54°57' E 010°09'1210.0
2015-Jan-17 08:22N 54°48' E 010°23'17 9.2
2015-Jan-17 06:32N 54°39' E 010°47'9 8.8
2015-Jan-17 05:33N 54°38' E 011°02'8 8.0
2015-Jan-17 04:33N 54°36' E 011°16'7 7.5
2015-Jan-17 03:34N 54°32' E 011°27'8 8.3
2015-Jan-17 02:33N 54°30' E 011°41'9 8.6
2015-Jan-17 01:33N 54°28' E 011°55'8 8.4
2015-Jan-17 00:33N 54°28' E 012°09'9 9.0
2015-Jan-16 23:33N 54°37' E 012°14'9 9.0
2015-Jan-16 22:33N 54°42' E 012°26'10 9.6
2015-Jan-16 21:33N 54°47' E 012°41'3010.0
2015-Jan-16 18:33N 54°56' E 013°30'1110.9
2015-Jan-16 17:33N 55°00' E 013°48'1010.4
2015-Jan-16 16:33N 55°04' E 014°05'1010.1
2015-Jan-16 15:33N 55°12' E 014°17'1010.0
2015-Jan-16 14:33N 55°20' E 014°28'10 9.6
2015-Jan-16 13:33N 55°26' E 014°40'8 8.1
2015-Jan-16 12:33N 55°31' E 014°51'8 7.8
2015-Jan-16 11:33N 55°36' E 015°03'8 7.8
2015-Jan-16 10:33N 55°41' E 015°13'89 6.8
2015-Jan-15 21:23N 56°57' E 016°37'5 6.6
2015-Jan-15 20:34N 57°02' E 016°41'7 7.2
2015-Jan-15 19:33N 57°08' E 016°47'7 7.2
2015-Jan-15 18:33N 57°15' E 016°52'7 6.8
2015-Jan-15 17:34N 57°21' E 016°57'8 8.2
2015-Jan-15 16:33N 57°27' E 017°09'8 7.5
2015-Jan-15 15:34N 57°32' E 017°19'174 9.6
2015-Jan-14 21:33N 59°37' E 021°11'10 9.9
2015-Jan-14 20:34N 59°45' E 021°21'1310.0
2015-Jan-14 19:16N 59°55' E 021°37'  
2015-Jan-11 21:15N 59°56' E 021°39'811.4
2015-Jan-11 20:33N 59°52' E 021°26'1010.0
2015-Jan-11 19:33N 59°42' E 021°20'179 9.8
2015-Jan-11 01:15N 57°42' E 017°03'6 9.3
2015-Jan-11 00:33N 57°36' E 017°08'9 9.4
2015-Jan-10 23:33N 57°27' E 017°13'1110.7
2015-Jan-10 22:33N 57°16' E 017°14'1212.1
2015-Jan-10 21:33N 57°05' E 017°07'11311.3
2015-Jan-10 11:33N 55°20' E 015°51'1212.1
2015-Jan-10 10:33N 55°10' E 015°39'1212.3
2015-Jan-10 09:33N 54°59' E 015°28'1311.9
2015-Jan-10 08:29N 54°48' E 015°16'3511.7
2015-Jan-10 05:27N 54°19' E 014°42'1011.4
2015-Jan-10 04:33N 54°11' E 014°32'1111.3
2015-Jan-10 03:33N 54°02' E 014°20'9 8.8
2015-Jan-10 02:33N 53°54' E 014°16'0 0.1
2015-Jan-10 01:33N 53°54' E 014°16'0 0.0
2015-Jan-10 00:33N 53°54' E 014°16'0 0.0
2015-Jan-09 23:33N 53°54' E 014°16'0 0.0
2015-Jan-09 22:33N 53°54' E 014°16'0 0.0
2015-Jan-09 21:33N 53°54' E 014°16'0 0.0
2015-Jan-09 20:33N 53°54' E 014°16'0 0.0
2015-Jan-09 19:33N 53°54' E 014°16'0 0.0
2015-Jan-09 18:33N 53°54' E 014°16'0 0.0
2015-Jan-09 17:33N 53°54' E 014°16'0 0.0
2015-Jan-09 16:33N 53°54' E 014°16'0 0.0
2015-Jan-09 15:33N 53°54' E 014°16'0 0.0
2015-Jan-09 14:33N 53°54' E 014°16'0 0.0
2015-Jan-09 13:33N 53°54' E 014°16'0 0.0
2015-Jan-09 12:33N 53°54' E 014°16'8 7.9
2015-Jan-09 11:33N 54°01' E 014°14'1111.0
2015-Jan-09 10:32N 54°12' E 014°06'1010.2
2015-Jan-09 09:33N 54°20' E 013°58'1010.4
2015-Jan-09 08:33N 54°29' E 013°49'1111.2
2015-Jan-09 07:33N 54°38' E 013°36'1212.1
2015-Jan-09 06:33N 54°45' E 013°19'1211.4
2015-Jan-09 05:31N 54°51' E 013°02'1411.1
2015-Jan-09 04:15N 55°03' E 012°49'811.4
2015-Jan-09 03:33N 55°10' E 012°41'1110.7
2015-Jan-09 02:33N 55°20' E 012°38'1111.4
2015-Jan-09 01:33N 55°31' E 012°42'1212.4
2015-Jan-09 00:33N 55°44' E 012°41'2311.6
2015-Jan-08 22:33N 56°06' E 012°31'1211.9
2015-Jan-08 21:33N 56°09' E 012°11'1211.8
2015-Jan-08 20:33N 56°02' E 011°54'5 4.5
2015-Jan-08 19:31N 55°58' E 011°51'0 0.0
2015-Jan-08 18:28N 55°58' E 011°51'0 0.0
2015-Jan-08 17:31N 55°58' E 011°51'0 0.0
2015-Jan-08 16:04N 55°58' E 011°51'0 0.0
2015-Jan-08 15:33N 55°58' E 011°51'89 9.7
2015-Jan-08 06:24N 57°18' E 010°42'9 9.9
2015-Jan-08 05:32N 57°27' E 010°43'9 9.7
2015-Jan-08 04:33N 57°36' E 010°44'7 9.3
2015-Jan-08 03:51N 57°43' E 010°44'  
Track history (hours):
 
Tides and Currents Weather Stations Pressure Air Temp Water Temp Dewpoint Dewpoint Depression Visibility Wind Speed Wind Dir Waves Ship Positions

Baltic Betina

Last reported at 2015-Jan-18 02:05 UTC. Time now 2015-Feb-01 22:46 UTC.
Position N 55°16' E 009°53'.
Warning: this ship's position is 14 days out of date.

Length 90 m; draft 5.1 m.

Type: Ship. MMSI: 215869000.

Date/timePositionNaut miles runAvg speedWind from/ knotsBaromVisibWave heightAir tempDewpointWater temp
2015-Jan-18 02:05N 55°16' E 009°53'4 5.6
2015-Jan-18 01:24N 55°20' E 009°51'2 0.2
2015-Jan-17 12:15N 55°18' E 009°52'6 9.1
2015-Jan-17 11:34N 55°12' E 009°48'9 9.1
2015-Jan-17 10:33N 55°05' E 009°59'10 9.7
2015-Jan-17 09:33N 54°57' E 010°09'1210.0
2015-Jan-17 08:22N 54°48' E 010°23'17 9.2
2015-Jan-17 06:32N 54°39' E 010°47'9 8.8
2015-Jan-17 05:33N 54°38' E 011°02'8 8.0
2015-Jan-17 04:33N 54°36' E 011°16'7 7.5
2015-Jan-17 03:34N 54°32' E 011°27'8 8.3
2015-Jan-17 02:33N 54°30' E 011°41'9 8.6
2015-Jan-17 01:33N 54°28' E 011°55'8 8.4
2015-Jan-17 00:33N 54°28' E 012°09'9 9.0
2015-Jan-16 23:33N 54°37' E 012°14'9 9.0
2015-Jan-16 22:33N 54°42' E 012°26'10 9.6
2015-Jan-16 21:33N 54°47' E 012°41'3010.0
2015-Jan-16 18:33N 54°56' E 013°30'1110.9
2015-Jan-16 17:33N 55°00' E 013°48'1010.4
2015-Jan-16 16:33N 55°04' E 014°05'1010.1
2015-Jan-16 15:33N 55°12' E 014°17'1010.0
2015-Jan-16 14:33N 55°20' E 014°28'10 9.6
2015-Jan-16 13:33N 55°26' E 014°40'8 8.1
2015-Jan-16 12:33N 55°31' E 014°51'8 7.8
2015-Jan-16 11:33N 55°36' E 015°03'8 7.8
2015-Jan-16 10:33N 55°41' E 015°13'89 6.8
2015-Jan-15 21:23N 56°57' E 016°37'5 6.6
2015-Jan-15 20:34N 57°02' E 016°41'7 7.2
2015-Jan-15 19:33N 57°08' E 016°47'7 7.2
2015-Jan-15 18:33N 57°15' E 016°52'7 6.8
2015-Jan-15 17:34N 57°21' E 016°57'8 8.2
2015-Jan-15 16:33N 57°27' E 017°09'8 7.5
2015-Jan-15 15:34N 57°32' E 017°19'174 9.6
2015-Jan-14 21:33N 59°37' E 021°11'10 9.9
2015-Jan-14 20:34N 59°45' E 021°21'1310.0
2015-Jan-14 19:16N 59°55' E 021°37'  
2015-Jan-11 21:15N 59°56' E 021°39'811.4
2015-Jan-11 20:33N 59°52' E 021°26'1010.0
2015-Jan-11 19:33N 59°42' E 021°20'179 9.8
2015-Jan-11 01:15N 57°42' E 017°03'6 9.3
2015-Jan-11 00:33N 57°36' E 017°08'9 9.4
2015-Jan-10 23:33N 57°27' E 017°13'1110.7
2015-Jan-10 22:33N 57°16' E 017°14'1212.1
2015-Jan-10 21:33N 57°05' E 017°07'11311.3
2015-Jan-10 11:33N 55°20' E 015°51'1212.1
2015-Jan-10 10:33N 55°10' E 015°39'1212.3
2015-Jan-10 09:33N 54°59' E 015°28'1311.9
2015-Jan-10 08:29N 54°48' E 015°16'3511.7
2015-Jan-10 05:27N 54°19' E 014°42'1011.4
2015-Jan-10 04:33N 54°11' E 014°32'1111.3
2015-Jan-10 03:33N 54°02' E 014°20'9 8.8
2015-Jan-10 02:33N 53°54' E 014°16'0 0.1
2015-Jan-10 01:33N 53°54' E 014°16'0 0.0
2015-Jan-10 00:33N 53°54' E 014°16'0 0.0
2015-Jan-09 23:33N 53°54' E 014°16'0 0.0
2015-Jan-09 22:33N 53°54' E 014°16'0 0.0
2015-Jan-09 21:33N 53°54' E 014°16'0 0.0
2015-Jan-09 20:33N 53°54' E 014°16'0 0.0
2015-Jan-09 19:33N 53°54' E 014°16'0 0.0
2015-Jan-09 18:33N 53°54' E 014°16'0 0.0
2015-Jan-09 17:33N 53°54' E 014°16'0 0.0
2015-Jan-09 16:33N 53°54' E 014°16'0 0.0
2015-Jan-09 15:33N 53°54' E 014°16'0 0.0
2015-Jan-09 14:33N 53°54' E 014°16'0 0.0
2015-Jan-09 13:33N 53°54' E 014°16'0 0.0
2015-Jan-09 12:33N 53°54' E 014°16'8 7.9
2015-Jan-09 11:33N 54°01' E 014°14'1111.0
2015-Jan-09 10:32N 54°12' E 014°06'1010.2
2015-Jan-09 09:33N 54°20' E 013°58'1010.4
2015-Jan-09 08:33N 54°29' E 013°49'1111.2
2015-Jan-09 07:33N 54°38' E 013°36'1212.1
2015-Jan-09 06:33N 54°45' E 013°19'1211.4
2015-Jan-09 05:31N 54°51' E 013°02'1411.1
2015-Jan-09 04:15N 55°03' E 012°49'811.4
2015-Jan-09 03:33N 55°10' E 012°41'1110.7
2015-Jan-09 02:33N 55°20' E 012°38'1111.4
2015-Jan-09 01:33N 55°31' E 012°42'1212.4
2015-Jan-09 00:33N 55°44' E 012°41'2311.6
2015-Jan-08 22:33N 56°06' E 012°31'1211.9
2015-Jan-08 21:33N 56°09' E 012°11'1211.8
2015-Jan-08 20:33N 56°02' E 011°54'5 4.5
2015-Jan-08 19:31N 55°58' E 011°51'0 0.0
2015-Jan-08 18:28N 55°58' E 011°51'0 0.0
2015-Jan-08 17:31N 55°58' E 011°51'0 0.0
2015-Jan-08 16:04N 55°58' E 011°51'0 0.0
2015-Jan-08 15:33N 55°58' E 011°51'89 9.7
2015-Jan-08 06:24N 57°18' E 010°42'9 9.9
2015-Jan-08 05:32N 57°27' E 010°43'9 9.7
2015-Jan-08 04:33N 57°36' E 010°44'7 9.3
2015-Jan-08 03:51N 57°43' E 010°44'  

Dump ship's entire track history